Time;durP1;ratioP1;P1;durP2;ratioP2;P2;SDS_P1;SDS_P2;PMS_P1;PMS_P2;Temp;Humidity;BMP_temperature;BMP_pressure;BME280_temperature;BME280_humidity;BME280_pressure;Samples;Min_cycle;Max_cycle;Signal;HPM_P1;HPM_P2
2022/05/31 00:00:59;;;;;;;8.68;2.78;;;;;;;5.33;94.99;101536.06;5051413;28;20112;-76
2022/05/31 00:03:24;;;;;;;3.30;2.20;;;;;;;5.32;95.55;101539.66;5051480;28;20036;-77
2022/05/31 00:05:50;;;;;;;4.10;1.90;;;;;;;5.32;95.46;101542.28;5051372;28;20051;-76
2022/05/31 00:08:16;;;;;;;4.15;2.35;;;;;;;5.30;96.12;101534.47;5051867;28;20029;-77
2022/05/31 00:10:42;;;;;;;2.78;2.08;;;;;;;5.32;96.77;101535.22;5051860;28;20033;-76
2022/05/31 00:13:07;;;;;;;5.15;2.20;;;;;;;5.31;96.90;101536.13;5051783;28;20510;-76
2022/05/31 00:15:36;;;;;;;3.30;2.03;;;;;;;5.31;96.63;101533.50;5051274;28;20033;-77
2022/05/31 00:18:03;;;;;;;5.28;2.38;;;;;;;5.32;97.01;101531.72;5051403;28;20040;-75
2022/05/31 00:20:28;;;;;;;5.72;2.40;;;;;;;5.33;97.58;101531.66;5051603;28;20025;-77
2022/05/31 00:22:53;;;;;;;3.13;2.03;;;;;;;5.33;97.75;101526.38;5051097;28;20460;-76
2022/05/31 00:25:19;;;;;;;4.47;2.58;;;;;;;5.36;97.95;101525.31;5051024;28;20029;-76
2022/05/31 00:27:44;;;;;;;3.28;2.10;;;;;;;5.36;98.44;101527.97;5051055;28;20552;-76
2022/05/31 00:30:11;;;;;;;6.85;2.60;;;;;;;5.36;98.61;101526.19;5051045;28;20025;-77
2022/05/31 00:32:40;;;;;;;4.07;2.80;;;;;;;5.35;98.67;101529.75;5051186;28;20085;-78
2022/05/31 00:35:10;;;;;;;4.35;2.78;;;;;;;5.37;98.85;101533.16;5051324;28;20120;-76
2022/05/31 00:37:36;;;;;;;4.35;2.40;;;;;;;5.35;99.02;101535.03;5054959;28;20517;-78
2022/05/31 00:40:04;;;;;;;2.85;2.20;;;;;;;5.34;98.69;101528.03;5054717;28;20365;-77
2022/05/31 00:42:53;;;;;;;4.10;2.22;;;;;;;5.32;98.95;101523.81;5054832;28;20060;-76
2022/05/31 00:45:20;;;;;;;3.65;2.40;;;;;;;5.33;98.85;101522.84;5055130;28;20041;-76
2022/05/31 00:47:46;;;;;;;3.80;2.40;;;;;;;5.32;98.37;101523.81;5054966;28;20112;-76
2022/05/31 00:50:37;;;;;;;7.72;2.80;;;;;;;5.32;98.58;101529.09;5055548;28;20117;-76
2022/05/31 00:53:09;;;;;;;4.00;3.00;;;;;;;5.32;99.25;101529.94;5055305;28;20468;-76
2022/05/31 00:55:42;;;;;;;4.03;2.45;;;;;;;5.29;99.58;101527.47;5054834;28;20259;-74
2022/05/31 00:58:15;;;;;;;3.97;2.80;;;;;;;5.29;99.39;101524.84;5054723;28;20082;-75
2022/05/31 01:00:41;;;;;;;6.88;2.50;;;;;;;5.29;99.55;101527.47;5054819;28;20043;-76
2022/05/31 01:03:10;;;;;;;2.72;2.17;;;;;;;5.28;99.59;101531.03;5054736;28;20102;-75
2022/05/31 01:05:36;;;;;;;4.55;2.38;;;;;;;5.27;99.64;101519.66;5054434;28;20025;-76
2022/05/31 01:08:03;;;;;;;4.82;2.70;;;;;;;5.28;99.76;101517.84;5054304;28;20388;-76
2022/05/31 01:10:28;;;;;;;4.45;2.70;;;;;;;5.30;100.00;101516.00;5054271;28;20033;-76
2022/05/31 01:12:55;;;;;;;7.60;3.15;;;;;;;5.28;100.00;101513.44;5052673;28;20036;-76
2022/05/31 01:15:21;;;;;;;3.65;3.17;;;;;;;5.27;100.00;101517.00;5053956;28;20123;-76
2022/05/31 01:17:47;;;;;;;5.55;3.08;;;;;;;5.26;100.00;101523.22;5054114;28;20037;-77
2022/05/31 01:20:17;;;;;;;5.22;3.53;;;;;;;5.25;100.00;101520.66;5052870;28;20032;-77
2022/05/31 01:22:47;;;;;;;7.65;3.55;;;;;;;5.23;100.00;101520.75;5052489;28;20067;-79
2022/05/31 01:25:25;;;;;;;5.45;3.67;;;;;;;5.24;100.00;101511.91;5054019;28;20032;-77
2022/05/31 01:28:25;;;;;;;4.78;3.00;;;;;;;5.20;100.00;101515.66;5053888;28;20033;-77
2022/05/31 01:31:07;;;;;;;4.65;2.97;;;;;;;5.16;100.00;101519.41;5054069;28;20028;-76
2022/05/31 01:33:38;;;;;;;4.78;3.25;;;;;;;5.12;100.00;101513.47;5052245;28;20033;-76
2022/05/31 01:36:09;;;;;;;3.00;2.75;;;;;;;5.10;100.00;101517.13;5053653;28;20034;-76
2022/05/31 01:38:44;;;;;;;4.65;2.92;;;;;;;5.08;100.00;101511.09;5053626;28;20025;-77
2022/05/31 01:41:20;;;;;;;5.78;3.50;;;;;;;5.05;100.00;101520.00;5052582;28;20147;-77
2022/05/31 01:43:49;;;;;;;5.43;3.55;;;;;;;5.02;100.00;101514.06;5053110;28;20041;-77
2022/05/31 01:46:22;;;;;;;5.47;3.90;;;;;;;5.01;100.00;101504.44;5053555;28;20064;-76
2022/05/31 01:48:48;;;;;;;5.70;4.30;;;;;;;5.00;100.00;101511.53;5052852;28;20112;-77
2022/05/31 01:51:13;;;;;;;7.90;5.05;;;;;;;5.00;100.00;101510.66;5053150;28;20047;-76
2022/05/31 01:53:40;;;;;;;4.88;4.00;;;;;;;4.97;100.00;101509.06;5053381;28;20036;-76
2022/05/31 01:56:08;;;;;;;8.77;4.32;;;;;;;4.95;100.00;101505.63;5051868;28;20376;-77
2022/05/31 01:58:37;;;;;;;9.35;4.60;;;;;;;4.93;100.00;101502.25;5052004;28;20049;-77
2022/05/31 02:01:02;;;;;;;4.05;3.65;;;;;;;4.89;100.00;101501.56;5051816;28;20383;-76
2022/05/31 02:03:30;;;;;;;7.65;4.95;;;;;;;4.89;100.00;101501.56;5053391;28;20032;-76
2022/05/31 02:05:55;;;;;;;8.23;4.80;;;;;;;4.89;100.00;101498.91;5053282;28;20037;-76
2022/05/31 02:08:23;;;;;;;5.07;4.10;;;;;;;4.87;100.00;101500.81;5053286;28;20457;-76
2022/05/31 02:10:49;;;;;;;5.78;4.32;;;;;;;4.84;100.00;101506.25;5052871;28;20473;-80
2022/05/31 02:13:17;;;;;;;8.63;4.90;;;;;;;4.82;100.00;101507.25;5053251;28;20037;-76
2022/05/31 02:15:43;;;;;;;4.68;3.78;;;;;;;4.77;100.00;101502.25;5053152;28;20103;-75
2022/05/31 02:18:10;;;;;;;5.13;3.85;;;;;;;4.77;100.00;101499.63;5052975;28;20087;-76
2022/05/31 02:20:35;;;;;;;4.22;3.80;;;;;;;4.75;100.00;101499.69;5053093;28;20036;-76
2022/05/31 02:23:01;;;;;;;7.00;4.22;;;;;;;4.73;100.00;101492.81;5051658;28;20037;-76
2022/05/31 02:25:26;;;;;;;4.70;4.20;;;;;;;4.72;100.00;101496.41;5052564;28;20095;-75
2022/05/31 02:27:51;;;;;;;6.82;5.10;;;;;;;4.70;100.00;101492.97;5051449;28;20488;-76
2022/05/31 02:30:17;;;;;;;8.45;6.45;;;;;;;4.72;100.00;101496.41;5052330;28;20454;-75
2022/05/31 02:32:43;;;;;;;7.07;4.95;;;;;;;4.72;100.00;101499.88;5052675;28;20044;-75
2022/05/31 02:35:09;;;;;;;6.70;4.93;;;;;;;4.71;100.00;101495.53;5052578;28;20071;-76
2022/05/31 02:37:35;;;;;;;5.53;4.80;;;;;;;4.70;100.00;101492.97;5051126;28;20037;-76
2022/05/31 02:40:01;;;;;;;9.02;5.68;;;;;;;4.71;100.00;101499.97;5052534;28;20150;-76
2022/05/31 02:42:26;;;;;;;5.65;4.65;;;;;;;4.69;100.00;101496.56;5051381;28;20393;-75
2022/05/31 02:44:52;;;;;;;9.30;5.05;;;;;;;4.69;100.00;101499.19;5052541;28;20033;-75
2022/05/31 02:47:19;;;;;;;6.80;5.28;;;;;;;4.69;100.00;101492.13;5052567;28;20037;-75
2022/05/31 02:49:45;;;;;;;7.32;5.55;;;;;;;4.72;100.00;101491.13;5051220;28;20037;-72
2022/05/31 02:52:11;;;;;;;6.50;4.55;;;;;;;4.73;100.00;101487.53;5050630;28;20052;-72
2022/05/31 02:54:36;;;;;;;10.00;6.20;;;;;;;4.69;100.00;101488.66;5033404;28;20361;-72
2022/05/31 02:57:02;;;;;;;7.55;5.22;;;;;;;4.67;100.00;101488.75;5051158;28;20055;-73
2022/05/31 02:59:28;;;;;;;7.97;5.47;;;;;;;4.66;100.00;101488.78;5049687;28;20174;-74
2022/05/31 03:01:54;;;;;;;5.70;4.88;;;;;;;4.64;100.00;101488.88;5049613;28;20098;-74
2022/05/31 03:04:20;;;;;;;7.05;5.38;;;;;;;4.64;100.00;101494.16;5050607;28;20049;-72
2022/05/31 03:06:46;;;;;;;9.18;5.72;;;;;;;4.64;100.00;101488.03;5051018;28;20101;-73
2022/05/31 03:09:11;;;;;;;10.00;7.45;;;;;;;4.65;100.00;101487.13;5050700;28;20029;-75
2022/05/31 03:11:44;;;;;;;8.60;6.00;;;;;;;4.67;100.00;101488.75;5050904;28;20033;-74
2022/05/31 03:14:22;;;;;;;8.00;5.90;;;;;;;4.66;100.00;101487.03;5050830;28;20040;-74
2022/05/31 03:16:56;;;;;;;9.70;5.88;;;;;;;4.65;100.00;101487.97;5050472;28;20074;-74
2022/05/31 03:19:34;;;;;;;10.77;6.53;;;;;;;4.68;100.00;101484.31;5050707;28;20075;-72
2022/05/31 03:22:05;;;;;;;8.80;6.57;;;;;;;4.70;100.00;101482.44;5050407;28;20086;-74
2022/05/31 03:24:43;;;;;;;8.65;6.10;;;;;;;4.68;100.00;101484.31;5050188;28;20376;-74
2022/05/31 03:27:11;;;;;;;9.63;6.35;;;;;;;4.67;100.00;101479.97;5050808;28;20124;-74
2022/05/31 03:29:41;;;;;;;13.50;8.30;;;;;;;4.68;100.00;101484.31;5050363;28;20036;-74
2022/05/31 03:32:07;;;;;;;9.32;7.07;;;;;;;4.70;100.00;101485.06;5050575;28;20043;-74
2022/05/31 03:34:32;;;;;;;8.52;6.93;;;;;;;4.70;100.00;101480.66;5050183;28;20085;-74
2022/05/31 03:36:58;;;;;;;9.35;7.43;;;;;;;4.70;100.00;101488.56;5049949;28;20108;-74
2022/05/31 03:39:24;;;;;;;13.10;9.13;;;;;;;4.71;100.00;101476.22;5050208;28;20136;-74
2022/05/31 03:41:49;;;;;;;10.30;6.43;;;;;;;4.72;100.00;101481.41;5049839;28;20029;-74
2022/05/31 03:44:15;;;;;;;9.63;6.43;;;;;;;4.72;100.00;101481.41;5049959;28;20049;-74
2022/05/31 03:46:40;;;;;;;9.20;6.38;;;;;;;4.72;100.00;101476.16;5050147;28;20115;-73
2022/05/31 03:49:06;;;;;;;13.43;8.55;;;;;;;4.76;100.00;101477.69;5050201;28;20037;-73
2022/05/31 03:51:31;;;;;;;8.32;6.07;;;;;;;4.79;100.00;101473.16;5048634;28;20330;-73
2022/05/31 03:53:57;;;;;;;10.00;7.15;;;;;;;4.82;100.00;101476.50;5050342;28;20349;-73
2022/05/31 03:56:23;;;;;;;10.82;7.85;;;;;;;4.87;100.00;101478.88;5048366;28;20043;-73
2022/05/31 03:58:49;;;;;;;10.38;7.85;;;;;;;4.90;100.00;101476.91;5050161;28;20033;-73
2022/05/31 04:01:14;;;;;;;11.05;8.45;;;;;;;4.93;100.00;101475.88;5050209;28;20472;-73
2022/05/31 04:03:39;;;;;;;8.95;6.90;;;;;;;4.96;100.00;101467.78;5048639;28;20075;-73
2022/05/31 04:06:05;;;;;;;9.30;7.68;;;;;;;5.02;100.00;101478.00;5049995;28;20067;-73
2022/05/31 04:08:30;;;;;;;8.23;6.18;;;;;;;5.07;100.00;101469.81;5049381;28;20048;-73
2022/05/31 04:10:56;;;;;;;9.85;7.88;;;;;;;5.12;100.00;101470.41;5050680;28;20029;-73
2022/05/31 04:13:22;;;;;;;10.15;8.15;;;;;;;5.17;100.00;101470.16;5053990;28;20044;-73
2022/05/31 04:15:48;;;;;;;15.02;10.70;;;;;;;5.24;100.00;101471.47;5053787;28;20033;-73
2022/05/31 04:18:13;;;;;;;17.15;12.05;;;;;;;5.32;100.00;101468.41;5053908;28;20116;-73
2022/05/31 04:20:41;;;;;;;18.42;11.45;;;;;;;5.38;100.00;101465.41;5054141;28;20041;-73
2022/05/31 04:26:01;;;;;;;14.30;9.27;;;;;;;5.44;100.00;101462.41;5052607;28;20395;-74
2022/05/31 04:28:26;;;;;;;14.90;10.68;;;;;;;5.47;100.00;101464.84;5053842;28;20100;-73
2022/05/31 04:30:51;;;;;;;13.82;10.25;;;;;;;5.52;100.00;101462.78;5054268;28;20033;-73
2022/05/31 04:33:17;;;;;;;14.43;10.13;;;;;;;5.53;100.00;101461.84;5035790;28;20106;-73
2022/05/31 04:35:42;;;;;;;15.07;11.93;;;;;;;5.54;100.00;101460.03;5053964;28;20033;-74
2022/05/31 04:38:07;;;;;;;19.65;12.75;;;;;;;5.56;100.00;101464.31;5053985;28;20079;-75
2022/05/31 04:40:37;;;;;;;13.90;10.25;;;;;;;5.60;100.00;101467.63;5053513;28;20055;-73
2022/05/31 04:43:02;;;;;;;13.93;10.25;;;;;;;5.59;100.00;101461.47;5053306;28;20064;-73
2022/05/31 04:45:28;;;;;;;14.95;9.80;;;;;;;5.61;100.00;101464.03;5053340;28;20153;-73
2022/05/31 04:47:53;;;;;;;16.27;10.88;;;;;;;5.64;100.00;101455.91;5053556;28;20501;-73
2022/05/31 04:50:19;;;;;;;16.42;11.32;;;;;;;5.68;100.00;101456.59;5053452;28;20033;-73
2022/05/31 04:52:44;;;;;;;14.13;11.18;;;;;;;5.73;100.00;101457.16;5053588;28;20056;-74
2022/05/31 04:55:09;;;;;;;15.68;11.98;;;;;;;5.76;100.00;101454.34;5053272;28;20064;-74
2022/05/31 04:57:35;;;;;;;18.92;13.00;;;;;;;5.83;100.00;101453.88;5053400;28;20402;-74
2022/05/31 05:00:01;;;;;;;17.52;12.07;;;;;;;5.89;100.00;101452.66;5053465;28;20077;-73
2022/05/31 05:02:26;;;;;;;16.88;10.95;;;;;;;5.95;100.00;101449.63;5053447;28;20051;-74
2022/05/31 05:04:52;;;;;;;21.48;12.57;;;;;;;6.03;100.00;101451.84;5053925;28;20372;-74
2022/05/31 05:07:17;;;;;;;19.70;14.40;;;;;;;6.11;100.00;101446.94;5052058;28;20134;-74
2022/05/31 05:09:42;;;;;;;18.80;12.75;;;;;;;6.21;100.00;101455.16;5053417;28;20076;-74
2022/05/31 05:12:08;;;;;;;19.80;13.50;;;;;;;6.31;100.00;101461.53;5051583;28;20066;-74
2022/05/31 05:14:33;;;;;;;24.60;12.68;;;;;;;6.41;100.00;101453.88;5053202;28;20311;-73
2022/05/31 05:16:59;;;;;;;17.83;13.43;;;;;;;6.50;100.00;101452.44;5053082;28;20437;-74
2022/05/31 05:19:24;;;;;;;20.83;14.32;;;;;;;6.62;100.00;101446.38;5053591;28;20070;-74
2022/05/31 05:21:52;;;;;;;17.40;12.95;;;;;;;6.71;100.00;101459.00;5051258;28;20029;-74
2022/05/31 05:24:17;;;;;;;18.67;13.20;;;;;;;6.80;100.00;101446.13;5052436;28;20033;-75
2022/05/31 05:26:43;;;;;;;20.20;12.52;;;;;;;6.87;100.00;101445.63;5053812;28;20421;-71
2022/05/31 05:31:56;;;;;;;16.90;12.27;;;;;;;6.99;100.00;101454.56;5053314;28;20110;-72
2022/05/31 05:34:21;;;;;;;21.55;12.52;;;;;;;7.01;100.00;101447.38;5053046;28;20486;-73
2022/05/31 05:36:47;;;;;;;17.02;11.95;;;;;;;7.05;100.00;101453.31;5053503;28;20061;-73
2022/05/31 05:39:12;;;;;;;16.48;12.18;;;;;;;7.09;100.00;101449.53;5053725;28;20043;-72
2022/05/31 05:41:40;;;;;;;14.85;12.13;;;;;;;7.13;100.00;101444.88;5052920;28;20457;-73
2022/05/31 05:44:06;;;;;;;17.45;12.43;;;;;;;7.20;100.00;101441.72;5051179;28;20526;-72
2022/05/31 05:46:32;;;;;;;18.23;12.48;;;;;;;7.28;100.00;101445.66;5053178;28;20060;-72
2022/05/31 05:48:58;;;;;;;18.63;12.40;;;;;;;7.39;100.00;101446.63;5051795;28;20178;-72
2022/05/31 05:51:33;;;;;;;22.08;12.48;;;;;;;7.51;100.00;101442.31;5052868;28;20220;-73
2022/05/31 05:54:02;;;;;;;21.90;12.25;;;;;;;7.62;100.00;101444.22;5052808;28;20442;-73
2022/05/31 05:56:29;;;;;;;14.90;11.77;;;;;;;7.74;100.00;101450.47;5052866;28;20025;-73
2022/05/31 05:58:54;;;;;;;14.52;11.10;;;;;;;7.84;100.00;101446.22;5052567;28;20033;-72
2022/05/31 06:01:35;;;;;;;14.68;11.45;;;;;;;7.95;100.00;101448.13;5052459;28;20127;-72
2022/05/31 06:04:31;;;;;;;18.23;10.40;;;;;;;8.05;100.00;101441.22;5052699;28;20041;-73
2022/05/31 06:07:19;;;;;;;14.27;10.20;;;;;;;8.10;100.00;101449.69;5052774;28;20048;-74
2022/05/31 06:09:52;;;;;;;13.93;10.60;;;;;;;8.16;100.00;101452.88;5052710;28;20133;-74
2022/05/31 06:12:22;;;;;;;12.93;10.35;;;;;;;8.19;100.00;101444.72;5052670;28;20055;-73
2022/05/31 06:14:59;;;;;;;17.27;10.02;;;;;;;8.22;100.00;101447.13;5052679;28;20195;-74
2022/05/31 06:17:31;;;;;;;10.73;9.50;;;;;;;8.25;100.00;101447.75;5052758;28;20238;-74
2022/05/31 06:20:01;;;;;;;15.07;10.85;;;;;;;8.28;100.00;101444.91;5052186;28;20131;-74
2022/05/31 06:22:28;;;;;;;14.50;10.50;;;;;;;8.35;100.00;101445.31;5050860;28;20048;-74
2022/05/31 06:24:54;;;;;;;13.25;10.55;;;;;;;8.45;100.00;101446.38;5052290;28;20047;-74
2022/05/31 06:27:20;;;;;;;15.75;9.75;;;;;;;8.56;100.00;101445.59;5050789;28;20021;-73
2022/05/31 06:29:46;;;;;;;14.98;10.68;;;;;;;8.71;100.00;101442.81;5052160;28;20139;-73
2022/05/31 06:32:11;;;;;;;13.57;9.77;;;;;;;8.85;100.00;101447.09;5052716;28;20029;-73
2022/05/31 06:34:39;;;;;;;14.48;10.00;;;;;;;9.00;100.00;101451.25;5051294;28;20033;-73
2022/05/31 06:37:10;;;;;;;14.18;9.68;;;;;;;9.25;100.00;101436.97;5052032;28;20041;-73
2022/05/31 06:39:36;;;;;;;13.20;8.40;;;;;;;9.59;100.00;101442.38;5051960;28;20140;-73
2022/05/31 06:42:01;;;;;;;12.32;8.50;;;;;;;9.86;100.00;101436.75;5051746;28;20049;-72
2022/05/31 06:44:34;;;;;;;11.55;8.48;;;;;;;10.08;98.26;101432.41;5052426;28;20059;-72
2022/05/31 06:47:00;;;;;;;9.43;8.38;;;;;;;10.29;94.59;101443.16;5050566;28;20082;-71
2022/05/31 06:49:25;;;;;;;10.82;7.60;;;;;;;10.56;93.56;101442.78;5051620;28;20114;-73
2022/05/31 06:57:19;;;;;;;14.23;7.10;;;;;;;11.44;87.09;101442.69;5051849;28;20099;-72
2022/05/31 06:59:44;;;;;;;9.32;7.07;;;;;;;11.74;86.20;101439.22;5051796;28;20033;-71
2022/05/31 07:02:10;;;;;;;12.77;7.68;;;;;;;11.90;82.59;101440.56;5051193;28;20139;-71
2022/05/31 07:04:36;;;;;;;10.93;7.78;;;;;;;12.02;84.40;101434.19;5049649;28;20044;-70
2022/05/31 07:07:03;;;;;;;8.05;6.72;;;;;;;11.96;79.06;101438.22;5051138;28;20059;-72
2022/05/31 07:09:28;;;;;;;15.57;6.90;;;;;;;11.99;79.83;101437.13;5051116;28;20029;-73
2022/05/31 07:11:57;;;;;;;9.88;7.28;;;;;;;12.05;80.05;101441.09;5051721;28;20041;-73
2022/05/31 07:14:26;;;;;;;9.10;7.20;;;;;;;12.19;79.33;101439.88;5051054;28;20047;-71
2022/05/31 07:16:52;;;;;;;9.73;6.88;;;;;;;12.39;80.27;101427.41;5051416;28;20033;-72
2022/05/31 07:19:17;;;;;;;10.85;6.60;;;;;;;12.66;79.58;101432.13;5051446;28;20338;-72
2022/05/31 07:21:43;;;;;;;12.93;7.07;;;;;;;12.95;78.29;101434.81;5051431;28;20120;-73
2022/05/31 07:24:09;;;;;;;10.98;6.28;;;;;;;13.22;75.46;101436.78;5051863;28;20372;-71
2022/05/31 07:26:34;;;;;;;7.85;6.20;;;;;;;13.51;73.88;101430.59;5050018;28;20041;-76
2022/05/31 07:29:00;;;;;;;13.45;5.75;;;;;;;13.73;72.26;101428.56;5051061;28;20166;-76
2022/05/31 07:31:26;;;;;;;8.38;6.07;;;;;;;14.05;72.58;101428.16;5051347;28;20162;-79
2022/05/31 07:33:52;;;;;;;6.95;5.93;;;;;;;14.18;69.08;101424.28;5051332;28;20029;-79
2022/05/31 07:36:19;;;;;;;11.00;6.40;;;;;;;14.42;72.09;101431.78;5050052;28;20048;-79
2022/05/31 07:38:45;;;;;;;11.77;5.35;;;;;;;14.37;66.15;101428.72;5051014;28;20064;-77
2022/05/31 07:41:10;;;;;;;8.95;5.50;;;;;;;14.55;68.18;101436.78;5049891;28;20060;-77
2022/05/31 07:43:36;;;;;;;7.47;5.93;;;;;;;14.67;67.34;101427.56;5049337;28;20146;-79
2022/05/31 07:46:05;;;;;;;9.38;5.72;;;;;;;14.85;69.20;101430.25;5050074;28;20470;-78
2022/05/31 07:48:34;;;;;;;5.90;5.30;;;;;;;15.04;66.38;101423.91;5050767;28;20464;-78
2022/05/31 07:51:00;;;;;;;9.98;5.57;;;;;;;15.23;67.53;101425.56;5051653;28;20106;-79
2022/05/31 07:53:26;;;;;;;9.52;5.60;;;;;;;15.43;65.47;101418.16;5033383;28;20449;-78
2022/05/31 07:56:10;;;;;;;9.02;4.75;;;;;;;15.58;62.65;101418.44;5049161;28;20538;-79
2022/05/31 07:58:42;;;;;;;8.60;4.05;;;;;;;15.74;62.24;101412.34;5066427;28;20056;-80
2022/05/31 08:01:10;;;;;;;9.93;4.40;;;;;;;15.92;59.49;101411.47;5050663;28;20033;-79
2022/05/31 08:03:40;;;;;;;8.50;4.00;;;;;;;16.13;59.66;101419.09;5050990;28;20047;-82
2022/05/31 08:06:09;;;;;;;9.20;3.88;;;;;;;16.32;56.31;101415.31;5049849;28;20029;-79
2022/05/31 08:08:36;;;;;;;7.95;4.40;;;;;;;16.61;57.60;101411.34;5051338;28;20095;-78
2022/05/31 08:11:06;;;;;;;6.82;3.38;;;;;;;16.75;50.50;101413.41;5050857;28;20041;-80
2022/05/31 08:13:32;;;;;;;10.17;4.20;;;;;;;16.96;52.65;101409.41;5051074;28;20127;-78
2022/05/31 08:16:03;;;;;;;7.68;3.88;;;;;;;17.18;50.00;101411.44;5050630;28;20533;-84
2022/05/31 08:18:28;;;;;;;9.25;3.90;;;;;;;17.38;52.07;101401.16;5050839;28;20029;-78
2022/05/31 08:21:02;;;;;;;7.65;4.40;;;;;;;17.69;50.10;101396.88;5049604;28;20531;-81
2022/05/31 08:23:29;;;;;;;7.55;3.03;;;;;;;17.82;47.80;101397.19;5051319;28;20037;-82
2022/05/31 08:25:55;;;;;;;7.75;3.40;;;;;;;17.97;49.21;101406.25;5050443;28;20041;-81
2022/05/31 08:28:22;;;;;;;7.70;3.35;;;;;;;18.12;46.67;101398.28;5050820;28;20033;-78
2022/05/31 08:30:49;;;;;;;6.53;3.13;;;;;;;18.29;47.92;101398.22;5050175;28;20110;-79
2022/05/31 08:33:15;;;;;;;7.93;2.65;;;;;;;18.33;43.31;101403.06;5050386;28;20033;-79
2022/05/31 08:35:40;;;;;;;5.45;2.05;;;;;;;18.67;38.80;101401.84;5051097;28;20358;-87
2022/05/31 08:38:05;;;;;;;6.55;2.40;;;;;;;18.87;40.41;101403.25;5049115;28;20028;-81
2022/05/31 08:40:43;;;;;;;3.90;2.50;;;;;;;19.54;38.36;101402.47;5050417;28;20029;-79
2022/05/31 08:43:16;;;;;;;6.20;2.50;;;;;;;20.12;39.14;101399.16;5048664;28;20102;-75
2022/05/31 08:45:52;;;;;;;7.57;2.60;;;;;;;20.66;37.56;101401.47;5050506;28;20110;-82
2022/05/31 08:48:33;;;;;;;4.90;2.55;;;;;;;21.55;35.62;101400.13;5048977;28;20045;-77
2022/05/31 08:57:02;;;;;;;4.80;2.85;;;;;;;23.27;30.37;101399.25;5051332;28;20381;-75
2022/05/31 08:59:44;;;;;;;8.77;3.03;;;;;;;23.31;30.56;101392.34;5054346;28;20145;-74
2022/05/31 09:02:25;;;;;;;3.30;2.60;;;;;;;23.50;30.49;101393.38;5052648;28;20033;-75
2022/05/31 09:05:03;;;;;;;7.97;3.40;;;;;;;24.46;30.02;101378.19;5054000;28;20041;-75
2022/05/31 09:07:45;;;;;;;5.47;3.08;;;;;;;25.13;27.23;101385.88;5054070;28;20040;-75
2022/05/31 09:10:29;;;;;;;5.25;2.63;;;;;;;25.52;26.31;101381.13;5053910;28;20028;-75
2022/05/31 09:13:04;;;;;;;4.10;2.47;;;;;;;26.35;25.22;101376.19;5054180;28;20048;-75
2022/05/31 09:15:37;;;;;;;6.25;2.90;;;;;;;25.93;24.18;101376.06;5052141;28;20040;-75
2022/05/31 09:18:11;;;;;;;9.50;2.78;;;;;;;25.92;25.10;101367.06;5054189;28;20040;-74
2022/05/31 09:20:50;;;;;;;6.72;2.90;;;;;;;24.43;26.98;101371.28;5054152;28;20079;-75
2022/05/31 09:23:28;;;;;;;6.45;2.58;;;;;;;23.03;29.53;101374.38;5053642;28;20105;-73
2022/05/31 09:26:08;;;;;;;4.97;2.70;;;;;;;21.24;32.50;101379.72;5053852;28;20032;-73
2022/05/31 09:29:00;;;;;;;7.03;2.58;;;;;;;20.15;34.79;101369.88;5052770;28;20040;-72
2022/05/31 09:31:43;;;;;;;6.60;2.70;;;;;;;19.44;35.58;101381.16;5053613;28;20040;-73
2022/05/31 09:34:31;;;;;;;4.43;2.72;;;;;;;18.76;38.10;101378.34;5053065;28;20114;-72
2022/05/31 09:37:16;;;;;;;6.53;3.15;;;;;;;18.22;38.13;101379.22;5053564;28;20025;-71
2022/05/31 09:39:59;;;;;;;4.65;2.97;;;;;;;17.97;39.85;101370.41;5053308;28;20064;-72
2022/05/31 09:42:32;;;;;;;6.68;2.80;;;;;;;17.86;42.38;101376.97;5053106;28;20083;-73
2022/05/31 09:45:18;;;;;;;7.63;3.05;;;;;;;17.63;43.22;101375.03;5053775;28;20044;-72
2022/05/31 09:47:44;;;;;;;6.53;2.80;;;;;;;17.48;44.54;101376.78;5052817;28;20056;-77
2022/05/31 09:50:09;;;;;;;5.20;3.03;;;;;;;17.34;42.15;101366.72;5052857;28;20409;-77
2022/05/31 09:52:42;;;;;;;6.57;2.50;;;;;;;17.28;45.06;101371.75;5052783;28;20032;-75
2022/05/31 09:57:59;;;;;;;4.97;3.28;;;;;;;17.32;45.42;101376.81;5053773;28;20512;-77
2022/05/31 10:00:25;;;;;;;5.45;3.35;;;;;;;17.36;45.98;101362.84;5052218;28;20385;-75
2022/05/31 10:03:08;;;;;;;5.90;3.10;;;;;;;17.54;43.53;101369.84;5052437;28;20029;-76
2022/05/31 10:05:34;;;;;;;8.63;3.58;;;;;;;17.76;42.54;101362.88;5052308;28;20112;-75
2022/05/31 10:08:00;;;;;;;10.63;3.65;;;;;;;18.04;40.90;101365.16;5052046;28;20033;-74
2022/05/31 10:10:28;;;;;;;7.70;3.83;;;;;;;18.75;38.94;101360.53;5051310;28;20532;-75
2022/05/31 10:13:00;;;;;;;11.27;3.78;;;;;;;20.98;34.87;101360.56;5052556;28;20156;-75
2022/05/31 10:15:31;;;;;;;6.00;3.55;;;;;;;23.64;30.98;101358.88;5051813;28;20354;-74
2022/05/31 10:18:04;;;;;;;9.15;3.58;;;;;;;24.60;29.40;101352.59;5051623;28;20029;-75
2022/05/31 10:20:29;;;;;;;14.60;3.38;;;;;;;24.15;31.73;101358.06;5051960;28;20052;-75
2022/05/31 10:22:59;;;;;;;6.60;3.35;;;;;;;23.15;31.12;101359.16;5051255;28;20150;-75
2022/05/31 10:25:29;;;;;;;6.78;2.72;;;;;;;22.42;32.18;101354.47;5052430;28;20361;-72
2022/05/31 10:28:26;;;;;;;4.90;2.53;;;;;;;21.37;34.97;101351.06;5051649;28;20111;-71
2022/05/31 10:31:05;;;;;;;6.82;2.38;;;;;;;20.59;36.55;101351.88;5051027;28;20068;-72
2022/05/31 10:33:32;;;;;;;5.55;2.97;;;;;;;21.34;34.40;101344.19;5051633;28;20107;-72
2022/05/31 10:36:16;;;;;;;6.88;2.45;;;;;;;22.87;30.90;101353.91;5051668;28;20021;-72
2022/05/31 10:38:44;;;;;;;10.35;2.90;;;;;;;22.81;29.93;101355.59;5051452;28;20104;-72
2022/05/31 10:41:16;;;;;;;7.97;2.60;;;;;;;21.57;32.36;101360.19;5050114;28;20317;-71
2022/05/31 10:43:47;;;;;;;7.75;2.60;;;;;;;20.63;34.83;101355.00;5051394;28;20099;-72
2022/05/31 10:46:26;;;;;;;6.85;2.80;;;;;;;19.79;34.86;101354.47;5051444;28;20102;-74
2022/05/31 10:48:55;;;;;;;9.13;2.80;;;;;;;19.38;36.48;101357.63;5051617;28;20033;-71
2022/05/31 10:51:35;;;;;;;5.07;2.20;;;;;;;19.10;35.50;101357.41;5051069;28;20065;-72
2022/05/31 10:54:03;;;;;;;8.23;2.30;;;;;;;18.80;36.77;101355.41;5051226;28;20041;-72
2022/05/31 10:56:42;;;;;;;4.53;2.10;;;;;;;18.63;37.81;101360.09;5051728;28;20178;-72
2022/05/31 10:59:35;;;;;;;9.90;2.53;;;;;;;18.98;39.93;101362.38;5051360;28;20509;-71
2022/05/31 11:02:13;;;;;;;4.97;2.40;;;;;;;20.63;38.26;101358.56;5050807;28;20117;-74
2022/05/31 11:05:03;;;;;;;4.22;2.17;;;;;;;22.61;34.00;101355.56;5050684;28;20029;-72
2022/05/31 11:14:02;;;;;;;9.48;2.60;;;;;;;24.32;27.98;101349.41;5028485;28;20056;-73
2022/05/31 11:16:58;;;;;;;4.85;2.55;;;;;;;22.86;30.09;101355.81;5043617;28;20041;-72
2022/05/31 11:19:53;;;;;;;7.30;2.50;;;;;;;21.33;32.66;101347.91;5049103;28;20044;-72
2022/05/31 11:22:30;;;;;;;6.03;2.30;;;;;;;20.66;33.92;101350.09;5050527;28;20039;-73
2022/05/31 11:25:51;;;;;;;6.10;2.10;;;;;;;20.12;34.85;101356.75;5050272;28;20025;-72
2022/05/31 11:28:32;;;;;;;;;;;;;;;19.59;36.06;101364.16;5028512;28;20112;-73
2022/05/31 11:31:19;;;;;;;4.65;2.13;;;;;;;19.05;37.72;101362.47;5050414;28;19957;-72
2022/05/31 11:34:05;;;;;;;4.72;2.40;;;;;;;18.79;37.52;101361.00;5050671;28;20063;-72
2022/05/31 11:36:44;;;;;;;9.68;2.47;;;;;;;18.60;38.46;101373.09;5050127;28;20036;-72
2022/05/31 11:39:45;;;;;;;10.40;2.22;;;;;;;18.49;38.37;101374.34;5050209;28;20052;-73
2022/05/31 11:42:17;;;;;;;7.10;2.33;;;;;;;18.34;37.58;101374.25;5050434;28;20230;-72
2022/05/31 11:44:54;;;;;;;8.65;2.80;;;;;;;18.36;37.50;101369.53;5049504;28;20465;-73
2022/05/31 11:47:46;;;;;;;7.90;2.78;;;;;;;18.23;36.01;101367.44;5048649;28;20115;-72
2022/05/31 11:50:21;;;;;;;;;;;;;;;18.01;37.53;101368.22;5050304;28;20060;-73
2022/05/31 11:53:17;;;;;;;7.32;2.65;;;;;;;17.83;38.68;101363.88;5050414;28;19913;-72
2022/05/31 11:55:45;;;;;;;7.05;2.60;;;;;;;17.68;37.48;101365.63;5050000;28;20170;-72
2022/05/31 11:58:24;;;;;;;5.28;2.33;;;;;;;17.37;38.25;101377.94;5049886;28;20064;-73
2022/05/31 12:01:11;;;;;;;9.27;3.03;;;;;;;16.86;41.16;101383.50;5048922;28;20191;-73
2022/05/31 12:03:48;;;;;;;6.45;2.70;;;;;;;16.57;45.65;101384.00;5049860;28;20041;-73